Time;durP1;ratioP1;P1;durP2;ratioP2;P2;SDS_P1;SDS_P2;PMS_P1;PMS_P2;Temp;Humidity;BMP_temperature;BMP_pressure;BME280_temperature;BME280_humidity;BME280_pressure;Samples;Min_cycle;Max_cycle;Signal;HPM_P1;HPM_P2
2022/12/01 00:00:47;;;;;;;16.97;6.28;;;;;;;-1.55;72.03;101269.39;1836851;77;21041;-82
2022/12/01 00:03:13;;;;;;;13.90;5.17;;;;;;;-1.52;72.04;101269.77;1827155;76;21691;-81
2022/12/01 00:05:40;;;;;;;12.07;5.12;;;;;;;-1.56;72.17;101266.41;1828676;77;21017;-83
2022/12/01 00:08:06;;;;;;;15.72;5.08;;;;;;;-1.54;72.22;101259.84;1813229;79;21074;-84
2022/12/01 00:10:34;;;;;;;18.65;6.03;;;;;;;-1.57;72.35;101267.30;1791907;77;21275;-85
2022/12/01 00:13:04;;;;;;;12.25;5.45;;;;;;;-1.53;72.38;101264.13;1814245;77;21108;-86
2022/12/01 00:15:34;;;;;;;15.10;5.42;;;;;;;-1.54;72.50;101259.38;1821255;77;21025;-87
2022/12/01 00:18:01;;;;;;;13.50;6.28;;;;;;;-1.55;72.39;101261.58;1842518;77;21237;-83
2022/12/01 00:20:29;;;;;;;19.52;6.30;;;;;;;-1.54;72.45;101258.08;1818180;77;20987;-84
2022/12/01 00:22:55;;;;;;;13.78;5.70;;;;;;;-1.55;72.62;101258.13;1820508;78;21062;-84
2022/12/01 00:25:22;;;;;;;15.55;5.78;;;;;;;-1.51;72.52;101255.34;1822514;78;21563;-83
2022/12/01 00:27:50;;;;;;;14.87;6.35;;;;;;;-1.52;72.47;101257.57;1820346;78;20954;-81
2022/12/01 00:30:16;;;;;;;15.90;6.80;;;;;;;-1.50;72.39;101255.77;1815538;78;21180;-83
2022/12/01 00:32:43;;;;;;;15.90;6.05;;;;;;;-1.50;72.42;101257.06;1815065;78;21049;-83
2022/12/01 00:35:09;;;;;;;13.95;6.10;;;;;;;-1.48;72.23;101257.86;1824572;78;21096;-82
2022/12/01 00:37:36;;;;;;;16.93;6.47;;;;;;;-1.50;72.25;101258.83;1822674;78;20990;-93
2022/12/01 00:43:06;;;;;;;17.23;5.90;;;;;;;-1.52;72.33;101257.57;1684790;81;21190;-88
2022/12/01 00:45:34;;;;;;;13.40;5.20;;;;;;;-1.58;72.28;101265.61;1739637;79;20894;-91
2022/12/01 00:48:01;;;;;;;12.98;5.20;;;;;;;-1.57;72.37;101260.78;1737709;79;21026;-93
2022/12/01 00:50:27;;;;;;;15.63;7.05;;;;;;;-1.61;72.36;101260.48;1722229;82;21059;-90
2022/12/01 00:52:54;;;;;;;10.55;5.12;;;;;;;-1.62;72.41;101253.59;1733842;81;21128;-89
2022/12/01 00:55:21;;;;;;;11.50;5.50;;;;;;;-1.64;72.57;101254.10;1734151;79;21068;-87
2022/12/01 00:57:48;;;;;;;13.60;6.47;;;;;;;-1.63;72.51;101247.97;1713126;81;21022;-88
2022/12/01 01:00:16;;;;;;;15.65;6.25;;;;;;;-1.70;72.63;101247.77;1736545;80;21052;-83
2022/12/01 01:02:43;;;;;;;15.83;6.12;;;;;;;-1.70;72.61;101246.05;1707078;84;21882;-86
2022/12/01 01:05:09;;;;;;;16.70;6.50;;;;;;;-1.74;72.65;101240.51;1736267;80;21068;-81
2022/12/01 01:07:36;;;;;;;17.70;5.92;;;;;;;-1.76;72.43;101238.87;1737540;81;21241;-84
2022/12/01 01:10:03;;;;;;;13.90;5.75;;;;;;;-1.80;72.50;101246.81;1738885;81;20978;-82
2022/12/01 01:12:30;;;;;;;15.53;7.00;;;;;;;-1.85;72.52;101243.95;1733062;81;21100;-82
2022/12/01 01:14:58;;;;;;;19.15;6.12;;;;;;;-1.85;72.52;101241.35;1704122;84;21556;-83
2022/12/01 01:17:24;;;;;;;15.93;6.37;;;;;;;-1.92;72.58;101246.36;1705765;84;21062;-84
2022/12/01 01:19:52;;;;;;;18.62;6.03;;;;;;;-1.93;72.69;101237.70;1724980;82;21475;-83
2022/12/01 01:22:19;;;;;;;20.55;5.80;;;;;;;-2.00;72.76;101233.13;1735176;81;21044;-82
2022/12/01 01:24:46;;;;;;;16.90;6.22;;;;;;;-2.00;72.74;101241.41;1720366;82;21058;-82
2022/12/01 01:27:12;;;;;;;16.75;6.30;;;;;;;-2.05;72.79;101242.88;1703688;84;21083;-80
2022/12/01 01:29:38;;;;;;;13.83;6.30;;;;;;;-2.09;72.86;101241.24;1731243;82;21018;-81
2022/12/01 01:32:05;;;;;;;14.65;5.97;;;;;;;-2.13;72.89;101244.01;1737423;82;21217;-79
2022/12/01 01:34:31;;;;;;;16.90;6.33;;;;;;;-2.21;73.08;101241.66;1723246;81;21135;-79
2022/12/01 01:36:58;;;;;;;18.35;6.92;;;;;;;-2.22;73.18;101243.42;1732682;82;21140;-78
2022/12/01 01:39:24;;;;;;;16.42;6.17;;;;;;;-2.30;73.23;101240.22;1704170;84;21048;-82
2022/12/01 01:41:51;;;;;;;17.02;6.83;;;;;;;-2.31;73.39;101236.35;1742474;81;21072;-83
2022/12/01 01:44:45;;;;;;;16.27;7.40;;;;;;;-2.34;73.50;101235.14;1736484;82;21594;-79
2022/12/01 01:47:12;;;;;;;18.73;8.55;;;;;;;-2.40;73.58;101234.42;1762839;78;20978;-81
2022/12/01 01:49:39;;;;;;;25.90;9.68;;;;;;;-2.38;73.73;101236.98;1747405;80;21069;-82
2022/12/01 01:52:05;;;;;;;20.72;9.70;;;;;;;-2.41;73.87;101235.34;1766519;81;21028;-86
2022/12/01 01:54:38;;;;;;;21.55;10.90;;;;;;;-2.40;73.95;101234.88;1767842;81;21099;-85
2022/12/01 01:57:06;;;;;;;26.60;10.38;;;;;;;-2.39;73.90;101237.91;1750968;81;22252;-86
2022/12/01 01:59:41;;;;;;;22.37;10.43;;;;;;;-2.41;73.94;101234.50;1763316;81;20993;-88
2022/12/01 02:02:09;;;;;;;27.90;10.10;;;;;;;-2.40;73.93;101233.13;1761919;80;21032;-84
2022/12/01 02:04:42;;;;;;;30.10;9.18;;;;;;;-2.44;73.92;101234.13;1738822;82;21040;-88
2022/12/01 02:07:09;;;;;;;21.27;8.60;;;;;;;-2.46;73.93;101229.41;1762079;80;21074;-88
2022/12/01 02:09:35;;;;;;;22.32;8.45;;;;;;;-2.47;73.95;101236.84;1760590;81;21081;-85
2022/12/01 02:12:42;;;;;;;17.00;7.83;;;;;;;-2.53;74.03;101224.02;1712421;82;21087;-84
2022/12/01 02:15:34;;;;;;;22.55;8.95;;;;;;;-2.53;74.08;101237.04;1726368;83;21089;-83
2022/12/01 02:18:18;;;;;;;25.97;8.78;;;;;;;-2.57;74.15;101233.67;1707510;82;21016;-86
2022/12/01 02:21:20;;;;;;;21.50;8.23;;;;;;;-2.61;74.28;101231.20;1749272;81;20924;-86
2022/12/01 02:24:04;;;;;;;25.92;7.42;;;;;;;-2.59;74.33;101230.70;1758171;78;21096;-88
2022/12/01 02:27:09;;;;;;;18.90;7.83;;;;;;;-2.61;74.45;101233.37;1737867;80;21092;-79
2022/12/01 02:30:06;;;;;;;17.20;7.08;;;;;;;-2.61;74.52;101233.37;1728957;81;21045;-81
2022/12/01 02:33:15;;;;;;;16.52;6.72;;;;;;;-2.60;74.48;101226.41;1737537;81;21005;-87
2022/12/01 02:36:15;;;;;;;20.88;6.72;;;;;;;-2.61;74.48;101229.47;1742873;81;20960;-85
2022/12/01 02:39:08;;;;;;;19.85;5.90;;;;;;;-2.66;74.58;101231.35;1755228;80;21244;-83
2022/12/01 02:41:46;;;;;;;19.02;6.92;;;;;;;-2.70;74.57;101229.75;1778417;80;20999;-84
2022/12/01 02:44:21;;;;;;;18.85;8.28;;;;;;;-2.70;74.76;101227.14;1723460;80;21008;-80
2022/12/01 02:47:13;;;;;;;17.85;7.47;;;;;;;-2.73;74.93;101227.23;1709972;82;21034;-82
2022/12/01 02:49:44;;;;;;;19.17;8.35;;;;;;;-2.72;75.06;101234.14;1747953;81;21096;-85
2022/12/01 02:52:10;;;;;;;17.92;7.33;;;;;;;-2.71;74.99;101229.33;1726830;82;21060;-85
2022/12/01 02:54:37;;;;;;;17.00;7.05;;;;;;;-2.72;75.19;101229.37;1752423;81;20998;-85
2022/12/01 02:57:04;;;;;;;16.62;6.53;;;;;;;-2.68;75.18;101221.91;1753325;81;21095;-79
2022/12/01 02:59:30;;;;;;;12.73;6.78;;;;;;;-2.73;75.04;101227.23;1742963;81;21520;-82
2022/12/01 03:02:41;;;;;;;13.15;6.87;;;;;;;-2.78;75.06;101232.58;1728288;81;21658;-82
2022/12/01 03:05:20;;;;;;;13.13;6.60;;;;;;;-2.83;75.25;101234.91;1724680;82;22036;-81
2022/12/01 03:08:01;;;;;;;11.83;6.15;;;;;;;-2.86;75.49;101234.99;1723375;82;21054;-83
2022/12/01 03:10:48;;;;;;;13.28;6.33;;;;;;;-2.85;75.37;101233.66;1700316;82;21122;-82
2022/12/01 03:13:39;;;;;;;13.32;6.80;;;;;;;-2.86;75.48;101230.66;1711896;82;21030;-80
2022/12/01 03:16:17;;;;;;;15.48;7.20;;;;;;;-2.87;75.38;101237.20;1731038;82;21110;-81
2022/12/01 03:18:55;;;;;;;14.28;6.37;;;;;;;-2.86;75.44;101232.39;1718050;82;21117;-80
2022/12/01 03:21:45;;;;;;;10.45;6.05;;;;;;;-2.91;75.49;101233.84;1718339;83;21057;-81
2022/12/01 03:24:19;;;;;;;12.28;6.35;;;;;;;-2.97;75.48;101230.13;1735939;82;21081;-83
2022/12/01 03:26:50;;;;;;;12.60;7.00;;;;;;;-2.98;75.69;101233.16;1723708;82;21061;-81
2022/12/01 03:29:39;;;;;;;11.25;6.08;;;;;;;-2.98;75.79;101230.55;1741577;81;21096;-82
2022/12/01 03:32:26;;;;;;;11.57;6.60;;;;;;;-2.98;75.70;101226.66;1734198;81;21520;-82
2022/12/01 03:35:18;;;;;;;10.48;5.92;;;;;;;-2.98;75.67;101227.95;1720283;82;22467;-83
2022/12/01 03:37:50;;;;;;;15.45;6.22;;;;;;;-3.03;75.66;101232.45;1709252;82;21069;-83
2022/12/01 03:40:19;;;;;;;15.60;6.60;;;;;;;-3.02;75.87;101232.84;1753648;81;20986;-82
2022/12/01 03:42:59;;;;;;;10.70;6.58;;;;;;;-3.00;75.90;101236.25;1715373;82;21068;-84
2022/12/01 03:46:01;;;;;;;17.00;6.37;;;;;;;-3.04;75.86;101238.54;1723184;81;22048;-84
2022/12/01 03:48:27;;;;;;;12.18;6.55;;;;;;;-3.01;75.84;101235.86;1746514;80;21037;-82
2022/12/01 03:51:38;;;;;;;13.03;6.35;;;;;;;-3.04;75.82;101237.70;1749441;81;21014;-82
2022/12/01 03:54:21;;;;;;;9.55;6.08;;;;;;;-3.08;75.93;101234.33;1772117;81;21105;-83
2022/12/01 03:56:51;;;;;;;10.23;6.63;;;;;;;-3.08;75.90;101236.08;1765277;80;21962;-81
2022/12/01 03:59:18;;;;;;;12.73;6.78;;;;;;;-3.06;76.15;101242.94;1749087;81;21570;-81
2022/12/01 04:01:45;;;;;;;13.13;6.83;;;;;;;-3.08;76.12;101243.43;1754367;81;21055;-83
2022/12/01 04:04:12;;;;;;;10.32;6.30;;;;;;;-3.03;76.02;101238.95;1756602;81;21070;-78
2022/12/01 04:06:40;;;;;;;11.12;6.78;;;;;;;-3.07;75.98;101241.25;1753930;80;20982;-80
2022/12/01 04:09:06;;;;;;;10.15;7.10;;;;;;;-3.08;75.94;101239.98;1755139;80;21061;-81
2022/12/01 04:15:31;;;;;;;12.67;6.67;;;;;;;-3.08;75.91;101238.23;1850536;77;22076;-83
2022/12/01 04:17:58;;;;;;;12.40;6.83;;;;;;;-3.14;75.89;101244.91;1821787;78;21037;-85
2022/12/01 04:20:25;;;;;;;12.43;7.20;;;;;;;-3.14;76.04;101244.06;1850183;75;21191;-85
2022/12/01 04:22:51;;;;;;;9.28;6.83;;;;;;;-3.21;75.88;101243.37;1838830;77;20930;-83
2022/12/01 04:25:17;;;;;;;12.98;6.67;;;;;;;-3.20;76.01;101242.03;1824248;77;20914;-86
2022/12/01 04:27:44;;;;;;;14.75;8.23;;;;;;;-3.24;76.09;101246.08;1859541;77;21069;-87
2022/12/01 04:30:12;;;;;;;12.95;8.13;;;;;;;-3.26;76.10;101240.07;1855717;77;21045;-83
2022/12/01 04:32:40;;;;;;;13.13;7.47;;;;;;;-3.28;76.25;101248.36;1843623;77;21220;-85
2022/12/01 04:35:08;;;;;;;15.25;8.43;;;;;;;-3.30;76.40;101239.72;1859570;77;21041;-85
2022/12/01 04:37:35;;;;;;;12.82;7.37;;;;;;;-3.27;76.35;101245.69;1843227;75;20929;-86
2022/12/01 04:40:02;;;;;;;13.78;8.03;;;;;;;-3.28;76.42;101252.26;1860801;77;20990;-86
2022/12/01 04:42:29;;;;;;;15.65;7.72;;;;;;;-3.28;76.45;101247.06;1856661;75;20998;-88
2022/12/01 04:44:55;;;;;;;12.20;7.85;;;;;;;-3.29;76.46;101244.88;1842067;75;21196;-86
2022/12/01 04:47:22;;;;;;;15.58;8.20;;;;;;;-3.30;76.63;101247.52;1838169;77;21095;-85
2022/12/01 04:49:48;;;;;;;14.38;8.80;;;;;;;-3.25;76.61;101249.55;1850980;77;21006;-84
2022/12/01 04:52:14;;;;;;;12.65;8.13;;;;;;;-3.28;76.56;101254.86;1857071;77;21029;-82
2022/12/01 04:54:41;;;;;;;14.38;8.55;;;;;;;-3.27;76.64;101251.34;1832210;76;21040;-86
2022/12/01 04:57:07;;;;;;;13.72;8.40;;;;;;;-3.27;76.56;101251.34;1833259;76;21268;-88
2022/12/01 04:59:33;;;;;;;16.25;9.85;;;;;;;-3.28;76.67;101248.36;1839270;76;21015;-84
2022/12/01 05:02:01;;;;;;;15.60;8.85;;;;;;;-3.26;76.52;101251.31;1835974;77;20903;-83
2022/12/01 05:04:30;;;;;;;14.68;9.10;;;;;;;-3.28;76.49;101244.46;1813652;77;21007;-84
2022/12/01 05:06:57;;;;;;;12.98;8.53;;;;;;;-3.28;76.39;101244.46;1814290;78;20990;-84
2022/12/01 05:09:24;;;;;;;14.65;9.45;;;;;;;-3.28;76.42;101254.41;1840959;77;21283;-84
2022/12/01 05:11:50;;;;;;;17.73;9.68;;;;;;;-3.29;76.47;101256.58;1836407;77;21084;-84
2022/12/01 05:14:16;;;;;;;20.30;10.70;;;;;;;-3.26;76.38;101250.47;1828399;77;21044;-84
2022/12/01 05:16:43;;;;;;;15.00;9.68;;;;;;;-3.33;76.17;101254.13;1856272;77;21006;-85
2022/12/01 05:21:54;;;;;;;17.15;10.08;;;;;;;-3.43;76.17;101253.06;1815640;78;21121;-84
2022/12/01 05:24:20;;;;;;;21.07;11.50;;;;;;;-3.48;76.32;101264.48;1842616;78;21021;-85
2022/12/01 05:26:47;;;;;;;16.17;10.70;;;;;;;-3.46;76.29;101255.73;1836772;78;21064;-81
2022/12/01 05:29:15;;;;;;;18.30;11.33;;;;;;;-3.49;76.46;101254.54;1839509;78;21033;-83
2022/12/01 05:31:41;;;;;;;19.02;11.48;;;;;;;-3.49;76.56;101258.44;1829570;77;21009;-83
2022/12/01 05:34:08;;;;;;;17.17;10.78;;;;;;;-3.50;76.50;101263.21;1829060;77;21623;-92
2022/12/01 05:36:35;;;;;;;20.80;11.38;;;;;;;-3.57;76.51;101265.14;1827128;78;21012;-77
2022/12/01 05:39:01;;;;;;;15.83;10.10;;;;;;;-3.55;76.69;101263.80;1803510;78;21032;-82
2022/12/01 05:41:28;;;;;;;17.17;11.55;;;;;;;-3.54;76.94;101262.89;1819511;78;21469;-84
2022/12/01 05:43:54;;;;;;;20.68;11.73;;;;;;;-3.54;76.50;101271.14;1819778;78;21556;-82
2022/12/01 05:46:21;;;;;;;16.73;11.30;;;;;;;-3.58;76.62;101267.31;1844041;76;21764;-83
2022/12/01 05:48:48;;;;;;;16.60;10.85;;;;;;;-3.59;76.86;101267.37;1862037;77;21010;-82
2022/12/01 05:51:16;;;;;;;18.37;11.97;;;;;;;-3.64;76.43;101267.48;1864782;76;21170;-87
2022/12/01 05:53:43;;;;;;;18.82;10.13;;;;;;;-3.71;76.66;101269.83;1830359;77;21463;-85
2022/12/01 05:56:09;;;;;;;15.20;11.18;;;;;;;-3.71;76.85;101267.68;1810047;79;21143;-85
2022/12/01 05:58:36;;;;;;;15.50;9.13;;;;;;;-3.69;76.99;101273.69;1839404;77;21134;-87
2022/12/01 06:01:02;;;;;;;13.13;9.63;;;;;;;-3.71;77.05;101276.77;1848707;77;21016;-82
2022/12/01 06:03:30;;;;;;;14.57;10.43;;;;;;;-3.73;77.14;101281.16;1866024;76;21533;-83
2022/12/01 06:05:56;;;;;;;19.12;10.53;;;;;;;-3.74;77.52;101276.87;1816404;78;21005;-83
2022/12/01 06:08:24;;;;;;;17.98;10.55;;;;;;;-3.68;77.73;101277.55;1831948;78;21045;-81
2022/12/01 06:10:50;;;;;;;16.82;8.73;;;;;;;-3.60;77.99;101270.86;1820482;77;21091;-83
2022/12/01 06:13:17;;;;;;;12.80;8.83;;;;;;;-3.51;78.28;101274.97;1822574;78;21042;-89
2022/12/01 06:15:44;;;;;;;16.20;10.00;;;;;;;-3.38;78.40;101277.62;1834345;78;21071;-87
2022/12/01 06:18:10;;;;;;;14.15;10.35;;;;;;;-3.30;78.13;101275.69;1816354;77;21509;-87
2022/12/01 06:20:37;;;;;;;17.52;10.63;;;;;;;-3.27;77.89;101282.54;1827107;78;21044;-86
2022/12/01 06:23:04;;;;;;;15.60;9.98;;;;;;;-3.18;78.09;101278.39;1819030;78;21963;-86
2022/12/01 06:25:31;;;;;;;17.52;12.25;;;;;;;-3.13;78.07;101281.69;1832173;78;21029;-85
2022/12/01 06:27:58;;;;;;;15.72;10.78;;;;;;;-3.06;78.09;101280.64;1827769;77;22209;-86
2022/12/01 06:30:25;;;;;;;18.07;12.23;;;;;;;-3.01;78.30;101280.06;1828626;78;21052;-86
2022/12/01 06:32:51;;;;;;;20.43;13.15;;;;;;;-2.89;78.18;101281.45;1820316;78;20978;-87
2022/12/01 06:35:18;;;;;;;25.00;13.93;;;;;;;-2.84;78.06;101274.39;1834127;78;21174;-85
2022/12/01 06:37:44;;;;;;;23.75;14.78;;;;;;;-2.75;77.87;101271.10;1821604;78;20946;-88
2022/12/01 06:40:11;;;;;;;22.90;13.05;;;;;;;-2.66;77.87;101276.88;1833295;78;20942;-88
2022/12/01 06:42:38;;;;;;;18.70;13.80;;;;;;;-2.58;77.83;101272.75;1817662;78;20917;-83
2022/12/01 06:45:05;;;;;;;20.77;12.58;;;;;;;-2.46;77.70;101273.66;1820125;77;21064;-86
2022/12/01 06:47:31;;;;;;;15.95;12.23;;;;;;;-2.39;77.52;101271.73;1804290;79;21072;-87
2022/12/01 06:49:58;;;;;;;21.12;12.63;;;;;;;-2.27;77.16;101271.80;1807607;78;21533;-87
2022/12/01 06:52:25;;;;;;;16.55;12.00;;;;;;;-2.22;77.13;101268.58;1822213;78;21036;-83
2022/12/01 06:54:51;;;;;;;19.12;11.73;;;;;;;-2.11;76.87;101273.45;1814857;77;22080;-88
2022/12/01 06:57:17;;;;;;;19.80;11.22;;;;;;;-2.04;76.48;101273.66;1824967;78;21567;-84
2022/12/01 06:59:44;;;;;;;18.45;11.40;;;;;;;-2.02;76.21;101266.65;1821949;78;21211;-85
2022/12/01 07:02:11;;;;;;;17.48;12.35;;;;;;;-1.93;76.03;101273.30;1814837;78;20999;-85
2022/12/01 07:04:37;;;;;;;16.07;11.70;;;;;;;-1.93;75.74;101270.69;1823887;78;21016;-87
2022/12/01 07:07:05;;;;;;;15.38;10.00;;;;;;;-1.88;75.58;101271.40;1799500;78;21682;-88
2022/12/01 07:09:31;;;;;;;20.12;13.22;;;;;;;-1.89;75.35;101269.25;1817776;78;21489;-83
2022/12/01 07:11:58;;;;;;;20.97;12.45;;;;;;;-1.87;75.17;101268.75;1831197;77;21774;-85
2022/12/01 07:14:25;;;;;;;20.62;12.65;;;;;;;-1.83;75.11;101271.65;1812247;78;21066;-85
2022/12/01 07:16:52;;;;;;;20.57;11.45;;;;;;;-1.77;75.10;101271.90;1804710;78;21037;-81
2022/12/01 07:19:18;;;;;;;18.67;11.18;;;;;;;-1.73;74.76;101276.09;1829717;76;21033;-83
2022/12/01 07:21:45;;;;;;;15.43;11.20;;;;;;;-1.72;74.46;101271.73;1794396;78;21542;-79
2022/12/01 07:24:11;;;;;;;18.48;12.58;;;;;;;-1.69;73.96;101276.85;1835672;77;21529;-81
2022/12/01 07:26:39;;;;;;;16.05;10.60;;;;;;;-1.71;74.17;101275.59;1836422;77;21529;-80
2022/12/01 07:29:07;;;;;;;13.75;8.98;;;;;;;-1.62;74.10;101270.53;1834743;77;21083;-80
2022/12/01 07:31:34;;;;;;;15.93;8.20;;;;;;;-1.54;73.75;101279.39;1831621;77;21025;-81
2022/12/01 07:34:01;;;;;;;13.43;8.03;;;;;;;-1.47;72.86;101276.95;1840738;77;20962;-81
2022/12/01 07:36:27;;;;;;;12.63;7.65;;;;;;;-1.49;72.76;101274.39;1834197;77;21539;-81
2022/12/01 07:38:53;;;;;;;16.05;8.40;;;;;;;-1.48;72.61;101278.71;1820734;77;21027;-81
2022/12/01 07:41:20;;;;;;;12.93;7.70;;;;;;;-1.40;72.69;101277.14;1827584;77;21092;-81
2022/12/01 07:43:47;;;;;;;13.70;8.73;;;;;;;-1.36;72.40;101275.28;1814154;77;20990;-81
2022/12/01 07:46:16;;;;;;;12.15;7.37;;;;;;;-1.34;72.01;101277.38;1832997;77;20985;-81
2022/12/01 07:48:43;;;;;;;15.15;8.48;;;;;;;-1.30;71.72;101275.06;1838232;77;21250;-81
2022/12/01 07:51:15;;;;;;;12.28;7.45;;;;;;;-1.31;71.45;101271.61;1825981;77;21013;-83
2022/12/01 07:53:41;;;;;;;14.10;7.33;;;;;;;-1.23;71.50;101270.03;1827049;77;21596;-82
2022/12/01 07:56:08;;;;;;;13.38;7.95;;;;;;;-1.19;71.46;101269.02;1806114;77;21033;-82
2022/12/01 07:58:36;;;;;;;14.90;8.98;;;;;;;-1.13;71.36;101269.25;1816294;77;20990;-80
2022/12/01 08:01:11;;;;;;;12.60;8.08;;;;;;;-1.06;71.29;101266.36;1836451;77;21089;-80
2022/12/01 08:03:38;;;;;;;12.28;8.30;;;;;;;-0.94;71.09;101266.36;1843801;77;21056;-82
2022/12/01 08:06:05;;;;;;;13.00;8.25;;;;;;;-0.86;70.75;101263.46;1837075;77;21053;-82
2022/12/01 08:08:33;;;;;;;14.78;8.03;;;;;;;-0.80;70.40;101271.89;1859511;77;21005;-79
2022/12/01 08:11:03;;;;;;;12.58;8.45;;;;;;;-0.72;70.29;101265.55;1860056;77;21017;-77
2022/12/01 08:13:29;;;;;;;13.58;8.20;;;;;;;-0.64;70.09;101268.70;1858991;76;21097;-80
2022/12/01 08:15:56;;;;;;;14.40;9.68;;;;;;;-0.50;69.65;101271.64;1820070;77;21064;-80
2022/12/01 08:18:22;;;;;;;12.98;9.15;;;;;;;-0.40;69.57;101267.75;1819176;78;21044;-81
2022/12/01 08:20:50;;;;;;;15.55;10.20;;;;;;;-0.22;69.51;101268.77;1835052;78;21060;-81
2022/12/01 08:23:16;;;;;;;18.37;11.48;;;;;;;-0.02;69.16;101257.53;1837763;78;21037;-82
2022/12/01 08:25:43;;;;;;;19.82;12.15;;;;;;;0.21;68.90;101262.70;1822556;77;21204;-81
2022/12/01 08:28:09;;;;;;;21.48;13.25;;;;;;;0.41;68.45;101259.23;1821384;78;21057;-80
2022/12/01 08:30:36;;;;;;;15.20;9.83;;;;;;;0.67;68.58;101255.51;1820370;78;21088;-76
2022/12/01 08:33:02;;;;;;;19.48;12.80;;;;;;;0.96;67.78;101252.89;1822380;78;20993;-76
2022/12/01 08:35:29;;;;;;;19.75;12.15;;;;;;;1.18;67.20;101253.63;1829074;78;21029;-75
2022/12/01 08:37:55;;;;;;;16.48;11.88;;;;;;;1.45;67.32;101249.77;1812030;77;21015;-81
2022/12/01 08:40:22;;;;;;;24.23;12.00;;;;;;;1.68;66.47;101249.55;1822239;78;21025;-81
2022/12/01 08:42:50;;;;;;;16.55;11.55;;;;;;;1.85;65.65;101246.08;1835925;77;21104;-81
2022/12/01 08:45:17;;;;;;;17.07;12.13;;;;;;;2.00;65.42;101247.11;1794982;78;21002;-82
2022/12/01 08:47:43;;;;;;;19.85;12.88;;;;;;;2.15;65.41;101246.34;1826257;78;21025;-79
2022/12/01 08:50:11;;;;;;;22.67;12.23;;;;;;;2.38;65.18;101248.27;1819206;77;21059;-81
2022/12/01 08:52:38;;;;;;;16.70;12.58;;;;;;;2.63;65.30;101241.77;1803489;78;21072;-78
2022/12/01 08:55:06;;;;;;;20.57;12.13;;;;;;;3.27;63.83;101233.04;1840838;77;21562;-74
2022/12/01 08:57:33;;;;;;;18.92;12.40;;;;;;;3.27;63.83;101233.04;1825372;78;20973;-73
2022/12/01 08:59:59;;;;;;;15.60;11.08;;;;;;;3.57;63.70;101235.35;1827518;77;21051;-74
2022/12/01 09:02:25;;;;;;;18.25;11.00;;;;;;;3.73;63.00;101235.72;1822824;77;21116;-73
2022/12/01 09:04:52;;;;;;;16.87;11.10;;;;;;;3.96;61.81;101230.06;1824593;77;21105;-80
2022/12/01 09:07:18;;;;;;;17.50;12.13;;;;;;;4.18;61.82;101227.04;1817420;78;21208;-72
2022/12/01 09:09:46;;;;;;;17.20;12.33;;;;;;;4.50;61.66;101224.65;1831041;77;21053;-77
2022/12/01 09:12:13;;;;;;;17.30;11.05;;;;;;;4.77;61.26;101225.67;1823695;77;21662;-80
2022/12/01 09:14:41;;;;;;;18.75;11.73;;;;;;;4.85;59.02;101226.91;1834689;76;21052;-75
2022/12/01 09:17:08;;;;;;;18.02;11.85;;;;;;;4.96;60.12;101230.66;1847332;77;21089;-81
2022/12/01 09:19:34;;;;;;;15.45;10.93;;;;;;;5.17;58.51;101229.30;1837757;77;21046;-80
2022/12/01 09:22:01;;;;;;;16.95;11.68;;;;;;;5.46;57.89;101221.34;1840982;77;21600;-85
2022/12/01 09:24:28;;;;;;;15.23;11.48;;;;;;;5.75;56.52;101227.35;1835121;76;21039;-84
2022/12/01 09:26:56;;;;;;;17.85;11.12;;;;;;;6.13;57.43;101221.84;1828410;77;21097;-85
2022/12/01 09:29:23;;;;;;;19.82;10.82;;;;;;;6.65;58.76;101219.12;1815956;77;21005;-80
2022/12/01 09:31:49;;;;;;;16.90;10.08;;;;;;;7.11;56.05;101215.05;1819585;77;20953;-81
2022/12/01 09:34:18;;;;;;;16.62;10.00;;;;;;;7.30;53.80;101217.19;1840399;76;21032;-80
2022/12/01 09:36:44;;;;;;;13.95;9.60;;;;;;;7.38;53.64;101215.31;1812977;78;21092;-79
2022/12/01 09:39:14;;;;;;;10.40;8.15;;;;;;;7.61;54.05;101211.86;1823820;78;21023;-75
2022/12/01 09:41:48;;;;;;;10.50;8.53;;;;;;;7.79;53.48;101210.13;1824522;78;21025;-82
2022/12/01 09:44:50;;;;;;;11.83;8.35;;;;;;;7.84;51.94;101208.83;1809770;78;21049;-83
2022/12/01 09:47:35;;;;;;;11.85;8.55;;;;;;;8.07;52.52;101212.39;1809351;78;21049;-83
2022/12/01 09:50:15;;;;;;;12.15;8.33;;;;;;;8.51;53.15;101207.81;1817066;78;21080;-83
2022/12/01 09:52:55;;;;;;;11.25;8.33;;;;;;;8.83;51.78;101206.63;1813032;78;21105;-77
2022/12/01 09:55:23;;;;;;;10.70;7.80;;;;;;;8.70;51.27;101206.73;1808737;78;21490;-84
2022/12/01 09:57:54;;;;;;;11.45;8.50;;;;;;;8.60;53.02;101201.80;1814196;78;20999;-78
2022/12/01 10:00:24;;;;;;;10.90;7.87;;;;;;;8.68;53.15;101198.06;1822135;78;21561;-76
2022/12/01 10:02:58;;;;;;;13.98;8.98;;;;;;;8.80;52.51;101198.42;1815970;78;21101;-80
2022/12/01 10:05:29;;;;;;;12.50;9.00;;;;;;;8.94;53.39;101200.46;1817046;77;21794;-76
2022/12/01 10:07:59;;;;;;;13.43;9.28;;;;;;;8.85;51.21;101193.61;1809867;77;21026;-75
2022/12/01 10:10:45;;;;;;;12.95;8.88;;;;;;;8.66;50.93;101196.02;1815283;77;21041;-75
2022/12/01 10:13:23;;;;;;;11.05;7.72;;;;;;;8.57;50.53;101195.41;1809492;77;21020;-79
2022/12/01 10:16:10;;;;;;;11.48;8.08;;;;;;;8.70;49.56;101192.16;1830631;77;21103;-77
2022/12/01 10:18:57;;;;;;;12.43;9.30;;;;;;;8.76;52.28;101191.67;1830552;77;21124;-82
2022/12/01 10:21:41;;;;;;;12.68;8.35;;;;;;;8.70;50.34;101192.16;1838262;77;21065;-75
2022/12/01 10:24:19;;;;;;;12.75;7.65;;;;;;;8.30;49.77;101195.22;1833615;77;21737;-76
2022/12/01 10:27:01;;;;;;;11.65;7.95;;;;;;;8.32;50.77;101188.48;1811546;77;21053;-79
2022/12/01 10:29:42;;;;;;;11.50;8.28;;;;;;;8.76;52.20;101177.10;1820461;78;21060;-80
2022/12/01 10:32:28;;;;;;;11.73;7.97;;;;;;;9.38;52.81;101182.78;1821299;77;21123;-78
2022/12/01 10:34:54;;;;;;;9.85;7.35;;;;;;;10.15;50.28;101181.73;1805077;77;21040;-78
2022/12/01 10:37:23;;;;;;;9.58;7.78;;;;;;;10.73;52.75;101168.76;1842861;76;20994;-75
2022/12/01 10:39:51;;;;;;;13.08;8.00;;;;;;;11.36;51.47;101169.00;1814907;78;21034;-76
2022/12/01 10:42:40;;;;;;;12.28;8.70;;;;;;;11.98;51.47;101174.91;1822559;77;21025;-75
2022/12/01 10:45:15;;;;;;;10.95;7.58;;;;;;;12.57;49.78;101174.25;1822229;77;21138;-72
2022/12/01 10:48:10;;;;;;;11.70;7.65;;;;;;;12.96;47.12;101162.93;1797383;77;21072;-75
2022/12/01 10:50:36;;;;;;;12.30;7.78;;;;;;;13.15;48.10;101164.65;1821134;77;20977;-81
2022/12/01 10:53:03;;;;;;;12.25;8.05;;;;;;;13.32;46.07;101158.17;1815438;78;21052;-81
2022/12/01 10:55:35;;;;;;;9.80;7.67;;;;;;;13.53;49.49;101160.03;1846865;76;21022;-89
2022/12/01 10:58:07;;;;;;;11.73;9.05;;;;;;;13.71;48.47;101158.72;1859632;77;21432;-87
2022/12/01 11:00:38;;;;;;;9.55;7.25;;;;;;;13.62;46.83;101159.63;1866215;76;21088;-83
2022/12/01 11:03:05;;;;;;;10.78;7.65;;;;;;;13.30;44.97;101154.81;1824221;78;21023;-83
2022/12/01 11:05:41;;;;;;;8.98;7.22;;;;;;;12.84;44.98;101154.77;1782586;78;20966;-84
2022/12/01 11:08:16;;;;;;;11.93;7.45;;;;;;;12.49;45.94;101154.98;1856775;77;21057;-80
2022/12/01 11:10:42;;;;;;;10.38;7.42;;;;;;;11.84;43.95;101157.52;1844457;77;21769;-80
2022/12/01 11:13:29;;;;;;;10.80;8.38;;;;;;;11.01;44.19;101155.71;1779900;77;21029;-79
2022/12/01 11:15:59;;;;;;;10.50;7.67;;;;;;;10.20;45.41;101158.28;1841924;76;22009;-80
2022/12/01 11:18:35;;;;;;;9.53;7.62;;;;;;;9.53;46.55;101146.21;1847568;76;21053;-77
2022/12/01 11:21:14;;;;;;;12.85;8.20;;;;;;;9.03;47.01;101147.55;1850971;75;21017;-81
2022/12/01 11:23:45;;;;;;;11.15;8.50;;;;;;;8.51;47.53;101153.52;1858004;76;21751;-78
2022/12/01 11:26:19;;;;;;;14.03;8.90;;;;;;;8.06;48.11;101143.20;1848758;77;21091;-80
2022/12/01 11:29:04;;;;;;;14.90;9.40;;;;;;;7.78;49.52;101150.22;1845319;76;21025;-82
2022/12/01 11:31:45;;;;;;;10.15;7.83;;;;;;;7.59;50.36;101148.97;1818674;77;21504;-80
2022/12/01 11:34:24;;;;;;;12.28;7.40;;;;;;;7.41;50.56;101151.64;1810033;77;21456;-81
2022/12/01 11:36:54;;;;;;;11.53;8.43;;;;;;;7.32;50.46;101148.34;1820618;77;21253;-80
2022/12/01 11:39:30;;;;;;;14.80;8.58;;;;;;;7.43;50.16;101150.56;1808887;77;21022;-80
2022/12/01 11:42:03;;;;;;;11.80;8.45;;;;;;;7.80;50.82;101150.95;1815935;77;21069;-77
2022/12/01 11:44:30;;;;;;;10.20;7.33;;;;;;;8.31;50.06;101142.64;1817921;77;21009;-79